Time;durP1;ratioP1;P1;durP2;ratioP2;P2;SDS_P1;SDS_P2;PMS_P1;PMS_P2;Temp;Humidity;BMP_temperature;BMP_pressure;BME280_temperature;BME280_humidity;BME280_pressure;Samples;Min_cycle;Max_cycle;Signal;HPM_P1;HPM_P2
2022/08/03 00:02:24;;;;;;;7.00;3.50;;;17.50;96.10;;;;;;5064380;28;20036;-68
2022/08/03 00:04:51;;;;;;;5.70;3.88;;;17.50;96.10;;;;;;5069770;28;20028;-68
2022/08/03 00:07:17;;;;;;;7.35;3.53;;;17.50;96.20;;;;;;5070408;28;20400;-68
2022/08/03 00:09:43;;;;;;;5.10;3.28;;;17.50;96.20;;;;;;5060729;28;20029;-68
2022/08/03 00:12:09;;;;;;;5.50;3.50;;;17.50;96.40;;;;;;5075425;28;20044;-68
2022/08/03 00:14:35;;;;;;;5.38;3.22;;;17.50;96.30;;;;;;5072636;28;20395;-69
2022/08/03 00:17:03;;;;;;;7.30;3.70;;;17.50;96.30;;;;;;5069654;28;20024;-68
2022/08/03 00:19:32;;;;;;;5.68;3.33;;;17.40;96.40;;;;;;5076332;28;20030;-68
2022/08/03 00:21:58;;;;;;;5.72;3.70;;;17.30;96.40;;;;;;5069114;28;20025;-69
2022/08/03 00:24:24;;;;;;;5.20;3.20;;;17.30;96.40;;;;;;5068146;28;20322;-68
2022/08/03 00:26:49;;;;;;;5.57;3.40;;;17.20;96.50;;;;;;5062375;28;20083;-68
2022/08/03 00:29:15;;;;;;;4.65;3.10;;;17.20;96.40;;;;;;5082504;28;20101;-68
2022/08/03 00:31:41;;;;;;;5.13;3.33;;;17.10;96.40;;;;;;5075816;28;20029;-68
2022/08/03 00:34:06;;;;;;;5.88;3.30;;;17.20;96.20;;;;;;5070942;28;20112;-67
2022/08/03 00:36:32;;;;;;;5.30;3.20;;;17.20;96.40;;;;;;5078590;28;20039;-69
2022/08/03 00:38:58;;;;;;;5.53;3.53;;;17.20;96.40;;;;;;5080246;28;20052;-69
2022/08/03 00:41:24;;;;;;;6.40;3.47;;;17.20;96.70;;;;;;5097989;28;20017;-68
2022/08/03 00:43:49;;;;;;;6.60;3.17;;;17.20;96.50;;;;;;5073711;28;20486;-68
2022/08/03 00:46:15;;;;;;;7.35;3.10;;;17.20;96.50;;;;;;5078878;28;20283;-68
2022/08/03 00:48:41;;;;;;;6.47;3.38;;;17.10;96.50;;;;;;5061809;28;20032;-68
2022/08/03 00:51:07;;;;;;;7.60;3.25;;;17.20;96.50;;;;;;5059504;28;20418;-68
2022/08/03 00:53:34;;;;;;;4.38;2.72;;;17.10;96.50;;;;;;5068837;28;20035;-68
2022/08/03 00:56:00;;;;;;;8.20;2.97;;;17.10;96.40;;;;;;5077110;28;20081;-68
2022/08/03 00:58:26;;;;;;;5.40;2.80;;;17.20;96.60;;;;;;5066117;28;20033;-68
2022/08/03 01:00:51;;;;;;;6.47;2.65;;;17.20;96.60;;;;;;5073855;28;20071;-67
2022/08/03 01:03:17;;;;;;;6.63;3.35;;;17.10;96.50;;;;;;5067359;28;20349;-68
2022/08/03 01:06:04;;;;;;;5.20;3.03;;;17.10;96.40;;;;;;5077523;28;20413;-67
2022/08/03 01:08:50;;;;;;;4.90;2.78;;;17.10;96.60;;;;;;5074228;28;20460;-68
2022/08/03 01:11:22;;;;;;;5.32;3.00;;;17.00;96.40;;;;;;5073662;28;20021;-68
2022/08/03 01:13:51;;;;;;;5.63;3.05;;;16.90;96.40;;;;;;5068620;28;20017;-68
2022/08/03 01:16:27;;;;;;;4.90;2.20;;;16.90;96.20;;;;;;5059635;28;20021;-67
2022/08/03 01:19:19;;;;;;;6.95;2.60;;;16.90;96.30;;;;;;5073629;28;20094;-68
2022/08/03 01:21:57;;;;;;;5.18;2.47;;;16.90;96.40;;;;;;5059335;28;20056;-68
2022/08/03 01:24:50;;;;;;;5.50;2.47;;;16.90;96.40;;;;;;5076030;28;20067;-68
2022/08/03 01:27:30;;;;;;;4.75;2.78;;;16.90;96.40;;;;;;5070687;28;20060;-68
2022/08/03 01:30:01;;;;;;;4.53;2.70;;;16.90;96.40;;;;;;5074393;28;20074;-67
2022/08/03 01:32:57;;;;;;;4.55;2.70;;;16.80;96.40;;;;;;5075278;28;20041;-67
2022/08/03 01:35:28;;;;;;;4.65;2.55;;;16.90;96.50;;;;;;5068103;28;20055;-68
2022/08/03 01:38:01;;;;;;;4.63;2.60;;;16.90;96.70;;;;;;5075438;28;20025;-68
2022/08/03 01:40:31;;;;;;;5.43;3.00;;;16.80;96.50;;;;;;5073022;28;20028;-68
2022/08/03 01:43:00;;;;;;;4.57;2.70;;;16.70;96.20;;;;;;5074454;28;20028;-67
2022/08/03 01:45:28;;;;;;;4.70;2.83;;;16.60;96.00;;;;;;5072593;28;20021;-67
2022/08/03 01:47:55;;;;;;;5.35;2.88;;;16.60;96.00;;;;;;5064149;28;20074;-67
2022/08/03 01:50:33;;;;;;;4.30;2.67;;;16.70;95.90;;;;;;5067430;28;20036;-67
2022/08/03 01:53:00;;;;;;;4.78;2.50;;;16.70;96.30;;;;;;5067693;28;20028;-67
2022/08/03 01:55:28;;;;;;;5.32;2.40;;;16.80;96.40;;;;;;5065821;28;20021;-68
2022/08/03 01:57:57;;;;;;;5.70;2.50;;;16.90;96.60;;;;;;5072460;28;20463;-67
2022/08/03 02:00:24;;;;;;;5.63;2.17;;;16.90;96.70;;;;;;5063078;28;20025;-67
2022/08/03 02:02:52;;;;;;;10.13;3.10;;;17.00;96.80;;;;;;5076798;28;20024;-67
2022/08/03 02:05:19;;;;;;;4.10;2.50;;;16.90;96.70;;;;;;5061541;28;20021;-67
2022/08/03 02:07:46;;;;;;;8.40;2.50;;;16.90;96.80;;;;;;5069276;28;20041;-68
2022/08/03 02:10:15;;;;;;;6.03;2.50;;;16.90;96.60;;;;;;5067981;28;20025;-67
2022/08/03 02:12:43;;;;;;;4.65;2.50;;;16.80;96.70;;;;;;5072192;28;20102;-68
2022/08/03 02:15:10;;;;;;;4.20;2.40;;;16.80;96.60;;;;;;5067713;28;20032;-67
2022/08/03 02:17:37;;;;;;;5.30;2.78;;;16.80;96.50;;;;;;5074108;28;20036;-68
2022/08/03 02:20:05;;;;;;;4.00;2.30;;;16.80;96.50;;;;;;5073999;28;20070;-67
2022/08/03 02:22:32;;;;;;;6.13;2.88;;;16.80;96.60;;;;;;5076919;28;20032;-67
2022/08/03 02:24:58;;;;;;;5.13;2.53;;;16.80;96.70;;;;;;5075018;28;20025;-68
2022/08/03 02:27:26;;;;;;;5.57;2.50;;;16.80;96.80;;;;;;5075951;28;20031;-67
2022/08/03 02:30:04;;;;;;;4.35;2.20;;;16.80;96.60;;;;;;5066357;28;20025;-67
2022/08/03 02:32:34;;;;;;;5.97;2.50;;;16.80;96.60;;;;;;5076616;28;20032;-68
2022/08/03 02:35:01;;;;;;;5.50;2.65;;;16.70;96.50;;;;;;5063330;28;20115;-67
2022/08/03 02:37:31;;;;;;;4.38;2.72;;;16.60;96.40;;;;;;5066151;28;20437;-67
2022/08/03 02:40:02;;;;;;;7.10;2.53;;;16.60;96.30;;;;;;5068476;28;20028;-67
2022/08/03 02:42:30;;;;;;;5.68;2.40;;;16.50;96.10;;;;;;5071887;28;20028;-67
2022/08/03 02:44:59;;;;;;;4.93;2.40;;;16.40;96.00;;;;;;5070255;28;21315;-67
2022/08/03 02:47:27;;;;;;;4.15;2.42;;;16.40;95.90;;;;;;5072424;28;20079;-67
2022/08/03 02:49:55;;;;;;;5.53;2.60;;;16.30;95.70;;;;;;5057188;28;20021;-67
2022/08/03 02:52:25;;;;;;;4.57;2.50;;;16.20;95.60;;;;;;5067058;28;20028;-67
2022/08/03 02:54:55;;;;;;;4.07;2.20;;;16.20;95.40;;;;;;5062539;28;20039;-68
2022/08/03 02:57:22;;;;;;;4.00;2.40;;;16.20;95.40;;;;;;5067483;28;20492;-67
2022/08/03 02:59:48;;;;;;;4.88;2.40;;;16.30;95.70;;;;;;5054856;28;20067;-68
2022/08/03 03:02:16;;;;;;;5.43;2.70;;;16.40;96.20;;;;;;5051061;28;20029;-68
2022/08/03 03:04:43;;;;;;;5.20;2.85;;;16.40;96.30;;;;;;5045683;28;20159;-67
2022/08/03 03:07:14;;;;;;;4.45;2.25;;;16.40;96.40;;;;;;5046520;28;20055;-67
2022/08/03 03:09:40;;;;;;;6.10;2.60;;;16.40;96.40;;;;;;5053202;28;20503;-68
2022/08/03 03:12:08;;;;;;;4.13;2.35;;;16.40;96.30;;;;;;5062877;28;20036;-67
2022/08/03 03:14:35;;;;;;;4.32;2.45;;;16.40;96.10;;;;;;5065114;28;20111;-67
2022/08/03 03:17:02;;;;;;;4.40;2.55;;;16.30;96.10;;;;;;5074099;28;20078;-68
2022/08/03 03:19:29;;;;;;;4.97;2.50;;;16.30;96.10;;;;;;5061886;28;20060;-67
2022/08/03 03:22:02;;;;;;;4.30;2.60;;;16.30;96.20;;;;;;5064310;28;20031;-68
2022/08/03 03:24:28;;;;;;;5.03;2.55;;;16.20;95.80;;;;;;5054884;28;20032;-67
2022/08/03 03:26:55;;;;;;;6.38;2.50;;;16.20;95.80;;;;;;5074888;28;20043;-67
2022/08/03 03:29:21;;;;;;;4.20;2.13;;;16.20;95.50;;;;;;5065425;28;20029;-67
2022/08/03 03:31:48;;;;;;;4.57;2.35;;;16.20;95.50;;;;;;5062767;28;20029;-67
2022/08/03 03:34:14;;;;;;;6.07;2.50;;;16.30;96.20;;;;;;5057615;28;20035;-68
2022/08/03 03:36:40;;;;;;;4.90;2.20;;;16.30;96.40;;;;;;5060174;28;20318;-68
2022/08/03 03:39:05;;;;;;;4.57;2.22;;;16.40;96.50;;;;;;5068977;28;20028;-69
2022/08/03 03:41:31;;;;;;;3.60;2.10;;;16.40;96.50;;;;;;5071281;28;20367;-67
2022/08/03 03:43:57;;;;;;;4.40;2.28;;;16.40;96.40;;;;;;5064677;28;20120;-68
2022/08/03 03:46:23;;;;;;;4.45;2.30;;;16.40;96.70;;;;;;5066889;28;20060;-68
2022/08/03 03:48:49;;;;;;;4.35;2.30;;;16.40;96.50;;;;;;5061301;28;20036;-68
2022/08/03 03:51:15;;;;;;;4.75;2.22;;;16.40;96.50;;;;;;5069976;28;20036;-68
2022/08/03 03:53:57;;;;;;;5.63;2.03;;;16.50;96.70;;;;;;5072921;28;20235;-68
2022/08/03 03:56:23;;;;;;;4.70;2.55;;;16.60;96.70;;;;;;5065325;28;20033;-68
2022/08/03 03:58:50;;;;;;;4.53;2.10;;;16.70;97.00;;;;;;5064883;28;20042;-68
2022/08/03 04:01:16;;;;;;;4.80;2.00;;;16.70;97.00;;;;;;5070202;28;20025;-68
2022/08/03 04:03:42;;;;;;;4.00;1.90;;;16.80;97.30;;;;;;5061825;28;20432;-68
2022/08/03 04:11:40;;;;;;;3.88;2.22;;;16.80;97.20;;;;;;5056292;28;20047;-69
2022/08/03 04:14:09;;;;;;;5.07;2.40;;;16.90;97.40;;;;;;5057290;28;20040;-68
2022/08/03 04:16:43;;;;;;;4.15;2.50;;;16.90;97.20;;;;;;5049245;28;20154;-68
2022/08/03 04:19:21;;;;;;;6.03;2.40;;;16.90;97.20;;;;;;5055474;28;20377;-69
2022/08/03 04:21:55;;;;;;;4.88;2.70;;;16.90;97.20;;;;;;5053023;28;20106;-69
2022/08/03 04:24:32;;;;;;;4.53;2.20;;;16.80;97.20;;;;;;5048553;28;20024;-69
2022/08/03 04:27:14;;;;;;;5.00;2.28;;;16.80;97.10;;;;;;5058406;28;20368;-68
2022/08/03 04:29:51;;;;;;;4.47;2.28;;;16.70;96.90;;;;;;5056202;28;20025;-68
2022/08/03 04:32:23;;;;;;;5.35;2.40;;;16.60;96.90;;;;;;5051173;28;20024;-67
2022/08/03 04:34:52;;;;;;;3.65;2.00;;;16.60;96.80;;;;;;5049273;28;21548;-67
2022/08/03 04:37:33;;;;;;;4.43;2.00;;;16.50;96.60;;;;;;5050085;28;20321;-67
2022/08/03 04:40:04;;;;;;;4.60;2.40;;;16.60;96.30;;;;;;5052899;28;20043;-67
2022/08/03 04:42:35;;;;;;;4.35;2.40;;;16.70;96.80;;;;;;5047485;28;20112;-67
2022/08/03 04:45:05;;;;;;;4.47;2.40;;;16.60;96.70;;;;;;5053141;28;20161;-67
2022/08/03 04:47:37;;;;;;;4.20;2.38;;;16.50;96.60;;;;;;5053072;28;20031;-68
2022/08/03 04:50:05;;;;;;;5.20;2.30;;;16.60;96.80;;;;;;5050925;28;20036;-68
2022/08/03 04:52:31;;;;;;;5.43;2.30;;;16.70;97.10;;;;;;5051011;28;20051;-67
2022/08/03 04:55:00;;;;;;;4.00;2.05;;;16.80;97.00;;;;;;5051700;28;20039;-67
2022/08/03 04:57:28;;;;;;;4.20;2.10;;;16.90;96.90;;;;;;5056486;28;20357;-67
2022/08/03 04:59:55;;;;;;;3.63;2.00;;;16.90;97.00;;;;;;5053805;28;20028;-67
2022/08/03 05:02:23;;;;;;;3.75;2.08;;;16.90;96.90;;;;;;5052832;28;20115;-67
2022/08/03 05:04:49;;;;;;;3.70;2.08;;;16.80;96.50;;;;;;5055247;28;20029;-67
2022/08/03 05:07:18;;;;;;;3.75;2.08;;;16.90;96.70;;;;;;5056973;28;20498;-67
2022/08/03 05:09:44;;;;;;;3.65;2.17;;;16.90;96.70;;;;;;5056194;28;20417;-67
2022/08/03 05:12:13;;;;;;;4.95;2.13;;;16.90;96.60;;;;;;5056865;28;20303;-67
2022/08/03 05:14:39;;;;;;;3.75;2.15;;;17.00;96.70;;;;;;5049866;28;20314;-67
2022/08/03 05:17:05;;;;;;;5.72;2.30;;;17.00;97.00;;;;;;5057010;28;20035;-67
2022/08/03 05:19:31;;;;;;;6.28;2.50;;;17.10;96.90;;;;;;5058057;28;20028;-67
2022/08/03 05:22:00;;;;;;;5.22;2.28;;;17.20;96.90;;;;;;5054430;28;20194;-68
2022/08/03 05:24:26;;;;;;;5.10;2.10;;;17.20;97.00;;;;;;5064200;28;20033;-69
2022/08/03 05:26:52;;;;;;;6.03;1.88;;;17.20;96.90;;;;;;5057873;28;20028;-67
2022/08/03 05:29:18;;;;;;;3.50;1.92;;;17.30;97.00;;;;;;5052962;28;20112;-67
2022/08/03 05:31:44;;;;;;;4.65;2.40;;;17.40;96.90;;;;;;5055254;28;20037;-68
2022/08/03 05:34:09;;;;;;;4.20;2.30;;;17.50;97.00;;;;;;5056460;28;20082;-67
2022/08/03 05:36:35;;;;;;;4.22;2.30;;;17.60;97.10;;;;;;5058082;28;20037;-69
2022/08/03 05:39:00;;;;;;;4.50;2.60;;;17.60;97.10;;;;;;5054848;28;21158;-68
2022/08/03 05:41:26;;;;;;;3.40;1.70;;;17.70;97.40;;;;;;5053187;28;20388;-68
2022/08/03 05:43:53;;;;;;;5.43;2.13;;;17.80;97.20;;;;;;5055686;28;20055;-68
2022/08/03 05:46:19;;;;;;;3.95;2.20;;;18.00;97.40;;;;;;5057907;28;21173;-67
2022/08/03 05:48:45;;;;;;;5.57;2.35;;;18.20;97.40;;;;;;5056191;28;20036;-67
2022/08/03 05:51:14;;;;;;;4.25;2.40;;;18.40;97.30;;;;;;5056234;28;20029;-67
2022/08/03 05:53:42;;;;;;;4.20;2.10;;;18.70;97.00;;;;;;5054349;28;20020;-68
2022/08/03 05:56:09;;;;;;;4.53;2.08;;;18.80;96.50;;;;;;5051379;28;20036;-68
2022/08/03 05:58:34;;;;;;;5.70;2.13;;;18.90;96.50;;;;;;5054717;28;20025;-68
2022/08/03 06:01:00;;;;;;;4.88;2.33;;;19.10;95.90;;;;;;5054526;28;20032;-68
2022/08/03 06:03:26;;;;;;;3.33;1.77;;;19.30;95.30;;;;;;5056027;28;20021;-68
2022/08/03 06:05:53;;;;;;;5.20;2.38;;;19.40;95.00;;;;;;5057869;28;20035;-68
2022/08/03 06:08:21;;;;;;;4.93;2.60;;;19.50;94.20;;;;;;5054278;28;20045;-67
2022/08/03 06:10:50;;;;;;;4.22;2.25;;;19.60;94.30;;;;;;5050931;28;20452;-67
2022/08/03 06:13:16;;;;;;;5.25;2.20;;;19.70;94.20;;;;;;5059984;28;20028;-68
2022/08/03 06:15:43;;;;;;;6.63;3.00;;;19.80;94.00;;;;;;5053879;28;20020;-68
2022/08/03 06:18:09;;;;;;;4.97;2.53;;;19.90;93.80;;;;;;5053214;28;20379;-68
2022/08/03 06:20:35;;;;;;;5.53;2.63;;;20.00;93.50;;;;;;5057214;28;20033;-68
2022/08/03 06:23:00;;;;;;;5.32;2.50;;;20.10;93.30;;;;;;5065523;28;20035;-68
2022/08/03 06:25:31;;;;;;;5.55;2.80;;;20.10;92.90;;;;;;5053588;28;20029;-68
2022/08/03 06:27:58;;;;;;;4.45;2.75;;;20.20;92.20;;;;;;5054272;28;20017;-69
2022/08/03 06:30:26;;;;;;;4.97;2.55;;;20.30;92.10;;;;;;5055383;28;20033;-67
2022/08/03 06:32:52;;;;;;;7.82;2.90;;;20.40;91.90;;;;;;5061779;28;20043;-67
2022/08/03 06:35:21;;;;;;;5.65;3.13;;;20.50;91.40;;;;;;5054606;28;20028;-68
2022/08/03 06:37:50;;;;;;;4.82;2.78;;;20.60;91.60;;;;;;5051968;28;20067;-68
2022/08/03 06:40:19;;;;;;;5.65;2.80;;;20.80;91.20;;;;;;5057956;28;20028;-67
2022/08/03 06:42:45;;;;;;;5.22;2.80;;;20.90;91.20;;;;;;5052650;28;20576;-68
2022/08/03 06:45:11;;;;;;;5.85;2.33;;;21.00;91.40;;;;;;5052878;28;20029;-67
2022/08/03 06:47:37;;;;;;;5.47;2.65;;;21.40;90.70;;;;;;5052473;28;20024;-68
2022/08/03 06:50:11;;;;;;;6.85;3.17;;;22.20;88.20;;;;;;5054613;28;20039;-68
2022/08/03 06:52:36;;;;;;;6.82;3.10;;;23.00;85.90;;;;;;5055770;28;20432;-68
2022/08/03 06:55:03;;;;;;;5.97;2.70;;;23.70;84.60;;;;;;5053252;28;20032;-68
2022/08/03 06:57:31;;;;;;;4.18;2.55;;;24.30;83.50;;;;;;5053265;28;20041;-68
2022/08/03 07:00:00;;;;;;;4.95;2.40;;;24.80;81.60;;;;;;5053126;28;20029;-68
2022/08/03 07:02:27;;;;;;;5.30;2.30;;;25.00;80.70;;;;;;5052012;28;20032;-68
2022/08/03 07:04:56;;;;;;;3.85;2.28;;;24.70;80.90;;;;;;5052758;28;20457;-67
2022/08/03 07:07:24;;;;;;;6.30;2.70;;;24.10;82.90;;;;;;5052502;28;20058;-67
2022/08/03 07:09:50;;;;;;;5.75;2.65;;;23.80;84.10;;;;;;5052642;28;20036;-68
2022/08/03 07:12:16;;;;;;;5.13;2.70;;;23.60;84.60;;;;;;5051920;28;20037;-68
2022/08/03 07:14:41;;;;;;;5.55;2.70;;;23.60;84.50;;;;;;5052437;28;20467;-68
2022/08/03 07:17:07;;;;;;;5.30;2.55;;;23.70;83.90;;;;;;5057304;28;20619;-68
2022/08/03 07:19:33;;;;;;;4.05;2.30;;;23.70;83.90;;;;;;5054997;28;20449;-68
2022/08/03 07:22:13;;;;;;;5.93;2.20;;;23.90;83.20;;;;;;5050740;28;20035;-68
2022/08/03 07:24:40;;;;;;;2.78;1.65;;;24.00;83.20;;;;;;5049852;28;20817;-68
2022/08/03 07:27:08;;;;;;;3.92;1.65;;;24.10;80.70;;;;;;5054309;28;20028;-68
2022/08/03 07:29:35;;;;;;;3.42;1.85;;;24.30;80.50;;;;;;5057313;28;20021;-68
2022/08/03 07:32:08;;;;;;;3.25;2.05;;;24.50;79.40;;;;;;5052816;28;20066;-68
2022/08/03 07:34:34;;;;;;;5.30;2.00;;;24.60;81.50;;;;;;5058358;28;20024;-68
2022/08/03 07:36:59;;;;;;;3.90;1.80;;;24.80;79.20;;;;;;5056104;28;20033;-68
2022/08/03 07:39:25;;;;;;;5.40;1.80;;;25.00;77.90;;;;;;5050470;28;20037;-68
2022/08/03 07:41:51;;;;;;;2.97;1.50;;;25.10;75.30;;;;;;5050571;28;20039;-68
2022/08/03 07:44:20;;;;;;;3.63;1.50;;;25.40;75.30;;;;;;5055484;28;20024;-68
2022/08/03 07:46:46;;;;;;;4.95;1.60;;;26.00;74.40;;;;;;5053905;28;20136;-68
2022/08/03 07:49:15;;;;;;;3.90;1.60;;;27.00;71.90;;;;;;5051062;28;20031;-69
2022/08/03 07:51:40;;;;;;;2.15;1.20;;;28.20;70.10;;;;;;5054444;28;20028;-68
2022/08/03 07:54:08;;;;;;;4.88;1.33;;;29.10;65.80;;;;;;5054858;28;20036;-69
2022/08/03 07:56:35;;;;;;;2.05;1.00;;;29.30;63.90;;;;;;5055895;28;20048;-68
2022/08/03 07:59:03;;;;;;;1.98;1.02;;;29.50;63.30;;;;;;5052518;28;20025;-69
2022/08/03 08:01:31;;;;;;;2.50;1.05;;;30.10;61.90;;;;;;5053030;28;20025;-67
2022/08/03 08:03:57;;;;;;;2.33;1.13;;;30.40;61.10;;;;;;5053716;28;20633;-67
2022/08/03 08:06:22;;;;;;;5.22;1.20;;;30.60;60.70;;;;;;5056102;28;20095;-67
2022/08/03 08:08:48;;;;;;;2.72;1.00;;;31.00;60.40;;;;;;5050843;28;20049;-67
2022/08/03 08:11:13;;;;;;;4.35;1.15;;;31.50;59.50;;;;;;5052842;28;20031;-67
2022/08/03 08:13:39;;;;;;;3.90;1.15;;;31.80;57.60;;;;;;5051313;28;20028;-67
2022/08/03 08:16:05;;;;;;;3.35;1.10;;;32.00;57.50;;;;;;5054029;28;20054;-67
2022/08/03 08:18:31;;;;;;;2.50;1.10;;;31.70;58.10;;;;;;5052877;28;20672;-67
2022/08/03 08:20:57;;;;;;;3.65;1.20;;;31.60;58.90;;;;;;5063842;28;20035;-67
2022/08/03 08:23:25;;;;;;;2.30;0.93;;;31.90;57.40;;;;;;5055631;28;20479;-68
2022/08/03 08:25:52;;;;;;;4.22;1.10;;;32.40;56.90;;;;;;5048848;28;20032;-67
2022/08/03 08:28:19;;;;;;;2.25;1.10;;;33.20;56.40;;;;;;5051541;28;20029;-68
2022/08/03 08:30:52;;;;;;;2.35;1.10;;;33.90;54.50;;;;;;5066040;28;20020;-68
2022/08/03 08:33:20;;;;;;;4.95;1.10;;;33.80;55.10;;;;;;5075016;28;20068;-68
2022/08/03 08:35:46;;;;;;;6.22;1.30;;;34.00;54.00;;;;;;5073627;28;20033;-69
2022/08/03 08:38:11;;;;;;;2.83;1.10;;;33.80;53.80;;;;;;5074013;28;20074;-68
2022/08/03 08:40:37;;;;;;;2.10;0.93;;;33.80;53.80;;;;;;5063987;28;20049;-68
2022/08/03 08:43:02;;;;;;;4.07;1.20;;;33.90;53.90;;;;;;5078655;28;20028;-68
2022/08/03 08:45:28;;;;;;;3.25;1.10;;;34.30;54.00;;;;;;5072481;28;20029;-68
2022/08/03 08:47:56;;;;;;;3.88;1.10;;;34.50;53.20;;;;;;4984843;28;20021;-67
2022/08/03 08:50:24;;;;;;;2.30;1.00;;;34.70;53.00;;;;;;5072955;28;20039;-68
2022/08/03 08:52:52;;;;;;;2.22;1.00;;;34.90;52.00;;;;;;5077895;28;20016;-68
2022/08/03 08:55:22;;;;;;;6.07;1.42;;;34.30;52.70;;;;;;5064496;28;20029;-68
2022/08/03 08:58:04;;;;;;;3.03;1.50;;;33.90;52.90;;;;;;5069589;28;20028;-69
2022/08/03 09:00:35;;;;;;;2.00;1.13;;;33.40;53.60;;;;;;5073759;28;20089;-68
2022/08/03 09:03:01;;;;;;;2.78;1.30;;;33.50;53.60;;;;;;5082888;28;20024;-67
2022/08/03 09:05:30;;;;;;;3.15;1.15;;;34.00;53.80;;;;;;5094158;28;20402;-67
2022/08/03 09:07:56;;;;;;;2.58;1.13;;;34.70;51.80;;;;;;5073189;28;20049;-67
2022/08/03 09:10:24;;;;;;;1.80;0.95;;;35.40;50.90;;;;;;5061986;28;20021;-67
2022/08/03 09:12:51;;;;;;;3.00;1.10;;;36.10;50.10;;;;;;5065635;28;20028;-67
2022/08/03 09:15:24;;;;;;;5.32;1.58;;;35.90;49.20;;;;;;5077252;28;20043;-68
2022/08/03 09:17:52;;;;;;;2.17;1.00;;;35.70;49.60;;;;;;5073156;28;20130;-68
2022/08/03 09:20:19;;;;;;;3.80;1.02;;;35.60;50.60;;;;;;5075108;28;20444;-68
2022/08/03 09:23:04;;;;;;;4.22;1.00;;;35.80;49.70;;;;;;5079987;28;20032;-68
2022/08/03 09:25:35;;;;;;;6.03;1.33;;;36.00;49.60;;;;;;5058221;28;20020;-68
2022/08/03 09:28:24;;;;;;;2.67;1.20;;;36.30;49.20;;;;;;5073024;28;20017;-68
2022/08/03 09:30:59;;;;;;;2.53;0.93;;;36.40;49.20;;;;;;5069015;28;20041;-68
2022/08/03 09:33:25;;;;;;;2.78;1.20;;;36.10;48.60;;;;;;5078787;28;20021;-68
2022/08/03 09:35:50;;;;;;;3.33;1.00;;;36.00;49.30;;;;;;5070247;28;20025;-68
2022/08/03 09:38:23;;;;;;;3.67;1.10;;;36.20;49.20;;;;;;5064006;28;20121;-68
2022/08/03 09:40:51;;;;;;;2.40;1.20;;;36.50;49.40;;;;;;5073711;28;20043;-68
2022/08/03 09:43:17;;;;;;;2.72;1.20;;;37.20;47.60;;;;;;5068593;28;20025;-68
2022/08/03 09:45:44;;;;;;;4.38;1.10;;;37.20;48.20;;;;;;5065111;28;20031;-68
2022/08/03 09:48:29;;;;;;;3.22;1.30;;;37.40;46.30;;;;;;5075398;28;20359;-68
2022/08/03 09:50:58;;;;;;;3.17;1.20;;;37.20;46.80;;;;;;5076026;28;20439;-68
2022/08/03 09:53:24;;;;;;;3.80;1.20;;;37.30;46.80;;;;;;5072560;28;20438;-68
2022/08/03 09:55:57;;;;;;;4.18;1.48;;;36.60;47.70;;;;;;5064846;28;20423;-68
2022/08/03 09:58:24;;;;;;;3.80;1.60;;;36.10;48.20;;;;;;5073046;28;20036;-68
2022/08/03 10:00:58;;;;;;;2.55;1.20;;;36.30;47.60;;;;;;5073589;28;20039;-68
2022/08/03 10:03:26;;;;;;;2.85;1.27;;;36.20;48.80;;;;;;5075202;28;20032;-68
2022/08/03 10:05:52;;;;;;;3.67;1.50;;;35.90;49.10;;;;;;5073140;28;20412;-72
2022/08/03 10:08:19;;;;;;;2.55;1.30;;;35.60;49.90;;;;;;5060107;28;20040;-72
2022/08/03 10:10:47;;;;;;;3.75;1.40;;;34.10;51.90;;;;;;5056670;28;20035;-68
2022/08/03 10:13:15;;;;;;;4.13;1.40;;;33.30;53.70;;;;;;5058248;28;20021;-68
2022/08/03 10:15:40;;;;;;;2.15;1.25;;;33.40;55.30;;;;;;5065085;28;20028;-67
2022/08/03 10:18:07;;;;;;;3.10;1.42;;;34.40;53.60;;;;;;5074773;28;20082;-68
2022/08/03 10:20:51;;;;;;;3.38;1.30;;;35.30;51.40;;;;;;5076436;28;20090;-68
2022/08/03 10:23:18;;;;;;;4.90;1.80;;;35.80;51.20;;;;;;5069155;28;20047;-67
2022/08/03 10:25:53;;;;;;;4.13;1.65;;;35.10;55.20;;;;;;5067651;28;20031;-67
2022/08/03 10:28:21;;;;;;;3.78;1.67;;;35.40;54.90;;;;;;5075194;28;20433;-68
2022/08/03 10:30:52;;;;;;;5.32;1.80;;;36.00;53.60;;;;;;5075174;28;20039;-68
2022/08/03 10:33:21;;;;;;;3.70;1.70;;;35.40;54.80;;;;;;5097638;28;20325;-67
2022/08/03 10:35:51;;;;;;;3.97;1.65;;;35.60;53.30;;;;;;5090293;28;20024;-68
2022/08/03 10:38:20;;;;;;;4.60;1.80;;;35.50;53.80;;;;;;5075595;28;20409;-68
2022/08/03 10:40:49;;;;;;;3.10;1.35;;;35.80;51.50;;;;;;5066388;28;20125;-68
2022/08/03 10:43:21;;;;;;;3.95;1.38;;;35.90;53.40;;;;;;5076056;28;20055;-68
2022/08/03 10:45:49;;;;;;;3.50;1.58;;;36.60;52.30;;;;;;5076893;28;20020;-68
2022/08/03 10:48:16;;;;;;;3.65;1.70;;;37.00;50.40;;;;;;5072630;28;20020;-68
2022/08/03 10:50:43;;;;;;;3.70;1.50;;;36.70;50.90;;;;;;5076397;28;20105;-68
2022/08/03 10:53:08;;;;;;;4.15;1.50;;;36.40;50.80;;;;;;5075499;28;20130;-68
2022/08/03 10:58:51;;;;;;;2.90;1.63;;;36.70;52.40;;;;;;5072576;28;20035;-68
2022/08/03 11:01:17;;;;;;;4.55;1.60;;;37.10;49.50;;;;;;5060458;28;20037;-67
2022/08/03 11:03:52;;;;;;;2.78;1.50;;;37.20;49.00;;;;;;5074141;28;20023;-68
2022/08/03 11:06:25;;;;;;;5.70;1.40;;;37.40;49.90;;;;;;5074678;28;20055;-68
2022/08/03 11:09:08;;;;;;;5.32;1.38;;;37.40;50.20;;;;;;5075863;28;20047;-67
2022/08/03 11:11:38;;;;;;;4.28;1.40;;;37.10;47.50;;;;;;5072400;28;20116;-68
2022/08/03 11:14:18;;;;;;;2.60;1.30;;;37.00;46.80;;;;;;5073447;28;20017;-68
2022/08/03 11:16:49;;;;;;;4.13;1.55;;;37.20;45.70;;;;;;5079129;28;20028;-68
2022/08/03 11:19:23;;;;;;;3.25;1.63;;;36.60;47.00;;;;;;5075477;28;20287;-68
2022/08/03 11:24:39;;;;;;;3.58;1.35;;;35.60;47.50;;;;;;5075126;28;20020;-67
2022/08/03 11:27:13;;;;;;;6.13;1.60;;;35.30;47.80;;;;;;5074897;28;20441;-68
2022/08/03 11:30:16;;;;;;;3.15;1.60;;;35.20;49.70;;;;;;5076312;28;20032;-68
2022/08/03 11:32:50;;;;;;;4.73;1.40;;;35.10;49.70;;;;;;5014994;28;20044;-68
2022/08/03 11:35:29;;;;;;;4.38;1.60;;;35.40;51.20;;;;;;5075110;28;20035;-68
2022/08/03 11:38:01;;;;;;;2.70;1.58;;;35.10;52.50;;;;;;5065542;28;20516;-68
2022/08/03 11:40:53;;;;;;;2.38;1.33;;;35.10;52.80;;;;;;5074309;28;20087;-68
2022/08/03 11:43:22;;;;;;;3.25;1.73;;;35.20;50.50;;;;;;5066712;28;20021;-68
2022/08/03 11:46:07;;;;;;;3.70;1.40;;;35.20;51.90;;;;;;5073724;28;20421;-68
2022/08/03 11:48:41;;;;;;;4.20;1.80;;;34.70;52.20;;;;;;5074679;28;20074;-68
2022/08/03 11:51:20;;;;;;;4.53;1.45;;;35.00;52.80;;;;;;5071772;28;20465;-68
2022/08/03 11:53:46;;;;;;;3.28;1.60;;;35.30;53.90;;;;;;5064273;28;20441;-68
2022/08/03 11:56:12;;;;;;;2.80;1.48;;;35.20;51.70;;;;;;5065997;28;20056;-68
2022/08/03 11:58:50;;;;;;;4.15;1.50;;;34.70;52.70;;;;;;5075923;28;20048;-67
2022/08/03 12:01:19;;;;;;;3.88;1.50;;;34.90;54.20;;;;;;5068045;28;20434;-67
2022/08/03 12:03:51;;;;;;;2.00;1.15;;;35.50;49.90;;;;;;5073842;28;20140;-67
2022/08/03 12:06:17;;;;;;;2.88;1.40;;;35.70;48.10;;;;;;5068117;28;20044;-67
2022/08/03 12:08:44;;;;;;;4.10;1.55;;;35.60;47.80;;;;;;5079836;28;20086;-68
2022/08/03 12:11:12;;;;;;;2.95;1.58;;;35.40;49.40;;;;;;5073777;28;20017;-68
2022/08/03 12:13:46;;;;;;;3.17;1.40;;;35.40;51.60;;;;;;5070400;28;20099;-67
2022/08/03 12:16:23;;;;;;;4.72;1.70;;;34.70;53.20;;;;;;5068564;28;20086;-68
2022/08/03 12:19:05;;;;;;;3.15;1.48;;;34.50;53.10;;;;;;5076707;28;20413;-68
2022/08/03 12:21:31;;;;;;;3.13;1.75;;;34.90;53.50;;;;;;5078793;28;20020;-68
2022/08/03 12:24:02;;;;;;;5.60;1.60;;;35.20;52.10;;;;;;5071386;28;20036;-68
2022/08/03 12:26:29;;;;;;;5.70;1.70;;;35.20;52.00;;;;;;5058091;28;20100;-68
2022/08/03 12:28:55;;;;;;;4.20;1.55;;;35.50;52.70;;;;;;5068197;28;20016;-68
2022/08/03 12:31:20;;;;;;;3.58;1.50;;;35.70;51.70;;;;;;5073658;28;20413;-68
2022/08/03 12:34:07;;;;;;;5.88;1.50;;;35.10;51.80;;;;;;5073930;28;20048;-68
2022/08/03 12:36:35;;;;;;;2.90;1.70;;;34.40;51.90;;;;;;5079232;28;20408;-69
2022/08/03 12:39:06;;;;;;;3.75;1.73;;;34.10;52.80;;;;;;5079491;28;20024;-69
2022/08/03 12:41:34;;;;;;;4.80;1.88;;;33.30;54.00;;;;;;5076176;28;20074;-68
2022/08/03 12:44:02;;;;;;;4.40;1.73;;;32.70;55.90;;;;;;5077166;28;20020;-68
2022/08/03 12:46:32;;;;;;;3.95;1.77;;;32.40;54.70;;;;;;5075375;28;20032;-68
2022/08/03 12:49:07;;;;;;;2.25;1.38;;;32.00;56.50;;;;;;5068029;28;20017;-68
2022/08/03 12:52:05;;;;;;;3.60;1.70;;;31.80;55.60;;;;;;5072961;28;20429;-68
2022/08/03 12:54:30;;;;;;;5.68;1.75;;;31.70;56.50;;;;;;5076655;28;20048;-68
2022/08/03 12:57:17;;;;;;;3.95;1.63;;;31.90;55.70;;;;;;5078901;28;20106;-68
2022/08/03 12:59:47;;;;;;;3.95;1.80;;;32.50;54.30;;;;;;5076019;28;20107;-68
2022/08/03 13:02:20;;;;;;;3.58;1.90;;;33.20;54.00;;;;;;5076167;28;20025;-68
2022/08/03 13:04:47;;;;;;;3.50;1.60;;;34.20;53.80;;;;;;5077594;28;20025;-69
2022/08/03 13:07:24;;;;;;;3.30;1.33;;;35.00;52.60;;;;;;5067366;28;20045;-67
2022/08/03 13:09:54;;;;;;;4.90;1.50;;;36.00;50.30;;;;;;5077298;28;20115;-68
2022/08/03 13:12:22;;;;;;;4.82;1.88;;;36.00;50.40;;;;;;5078591;28;20028;-68